createdAt,value
2018-09-23T00:01:34.264Z,98794.00
2018-09-23T00:04:03.804Z,98790.00
2018-09-23T00:06:32.865Z,98789.00
2018-09-23T00:09:01.997Z,98785.00
2018-09-23T00:11:31.067Z,98774.00
2018-09-23T00:14:00.344Z,98763.00
2018-09-23T00:16:29.426Z,98760.00
2018-09-23T00:18:58.648Z,98753.00
2018-09-23T00:21:27.725Z,98754.00
2018-09-23T00:23:56.799Z,98748.00
2018-09-23T00:26:25.916Z,98739.00
2018-09-23T00:28:54.956Z,98732.00
2018-09-23T00:31:24.064Z,98733.00
2018-09-23T00:33:53.173Z,98727.00
2018-09-23T00:36:22.353Z,98717.00
2018-09-23T00:38:51.413Z,98716.00
2018-09-23T00:41:20.488Z,98709.00
2018-09-23T00:43:49.557Z,98710.00
2018-09-23T00:46:18.608Z,98706.00
2018-09-23T00:48:47.699Z,98703.00
2018-09-23T00:51:16.800Z,98704.00
2018-09-23T00:53:45.873Z,98701.00
2018-09-23T00:56:14.989Z,98696.00
2018-09-23T00:58:44.831Z,98697.00
2018-09-23T01:01:13.925Z,98688.00
2018-09-23T01:03:43.026Z,98682.00
2018-09-23T01:06:12.076Z,98676.00
2018-09-23T01:08:41.208Z,98666.00
2018-09-23T01:11:10.620Z,98674.00
2018-09-23T01:13:39.682Z,98666.00
2018-09-23T01:16:08.792Z,98665.00
2018-09-23T01:18:38.408Z,98652.00
2018-09-23T01:21:07.612Z,98642.00
2018-09-23T01:23:36.889Z,98641.00
2018-09-23T01:26:06.184Z,98640.00
2018-09-23T01:28:35.734Z,98633.00
2018-09-23T01:31:04.872Z,98620.00
2018-09-23T01:33:34.172Z,98624.00
2018-09-23T01:36:03.272Z,98621.00
2018-09-23T01:38:32.356Z,98614.00
2018-09-23T01:41:01.924Z,98604.00
2018-09-23T01:43:31.000Z,98598.00
2018-09-23T01:45:59.992Z,98595.00
2018-09-23T01:48:29.116Z,98587.00
2018-09-23T01:50:58.187Z,98580.00
2018-09-23T01:53:27.291Z,98584.00
2018-09-23T01:55:56.648Z,98579.00
2018-09-23T01:58:25.761Z,98579.00
2018-09-23T02:00:54.864Z,98570.00
2018-09-23T02:03:23.924Z,98566.00
2018-09-23T02:05:53.067Z,98561.00
2018-09-23T02:08:22.160Z,98556.00
2018-09-23T02:10:51.265Z,98552.00
2018-09-23T02:13:20.333Z,98550.00
2018-09-23T02:15:49.812Z,98543.00
2018-09-23T02:18:18.933Z,98537.00
2018-09-23T02:20:48.000Z,98526.00
2018-09-23T02:23:17.079Z,98525.00
2018-09-23T02:25:46.508Z,98524.00
2018-09-23T02:28:15.592Z,98517.00
2018-09-23T02:30:44.707Z,98507.00
2018-09-23T02:33:13.817Z,98505.00
2018-09-23T02:35:42.900Z,98502.00
2018-09-23T02:38:11.996Z,98495.00
2018-09-23T02:40:41.172Z,98494.00
2018-09-23T02:43:10.682Z,98484.00
2018-09-23T02:45:39.773Z,98474.00
2018-09-23T02:48:09.604Z,98469.00
2018-09-23T02:50:38.704Z,98473.00
2018-09-23T02:53:07.897Z,98454.00
2018-09-23T02:55:37.016Z,98453.00
2018-09-23T02:58:06.061Z,98449.00
2018-09-23T03:00:35.189Z,98444.00
2018-09-23T03:03:04.296Z,98434.00
2018-09-23T03:05:33.405Z,98439.00
2018-09-23T03:08:02.520Z,98434.00
2018-09-23T03:10:31.649Z,98420.00
2018-09-23T03:13:00.788Z,98415.00
2018-09-23T03:15:29.888Z,98416.00
2018-09-23T03:17:59.001Z,98415.00
2018-09-23T03:20:28.081Z,98419.00
2018-09-23T03:22:57.164Z,98417.00
2018-09-23T03:25:26.260Z,98407.00
2018-09-23T03:27:55.334Z,98390.00
2018-09-23T03:30:24.407Z,98394.00
2018-09-23T03:32:53.532Z,98387.00
2018-09-23T03:35:22.648Z,98378.00
2018-09-23T03:37:51.712Z,98372.00
2018-09-23T03:40:20.948Z,98372.00
2018-09-23T03:42:50.037Z,98364.00
2018-09-23T03:45:19.089Z,98358.00
2018-09-23T03:47:48.245Z,98358.00
2018-09-23T03:50:17.306Z,98354.00
2018-09-23T03:52:46.364Z,98339.00
2018-09-23T03:55:15.565Z,98341.00
2018-09-23T03:57:44.633Z,98334.00
2018-09-23T04:00:13.680Z,98328.00
2018-09-23T04:02:42.801Z,98332.00
2018-09-23T04:05:11.888Z,98325.00
2018-09-23T04:07:40.993Z,98324.00
2018-09-23T04:10:10.111Z,98322.00
2018-09-23T04:12:39.185Z,98320.00
2018-09-23T04:15:08.200Z,98320.00
2018-09-23T04:17:37.640Z,98313.00
2018-09-23T04:20:06.772Z,98313.00
2018-09-23T04:22:40.949Z,98307.00
2018-09-23T04:25:10.090Z,98306.00
2018-09-23T04:27:39.204Z,98311.00
2018-09-23T04:30:08.482Z,98303.00
2018-09-23T04:32:37.501Z,98300.00
2018-09-23T04:35:06.772Z,98296.00
2018-09-23T04:37:36.181Z,98277.00
2018-09-23T04:40:05.277Z,98285.00
2018-09-23T04:42:34.326Z,98291.00
2018-09-23T04:45:03.502Z,98287.00
2018-09-23T04:47:32.539Z,98283.00
2018-09-23T04:50:01.658Z,98275.00
2018-09-23T04:52:31.164Z,98283.00
2018-09-23T04:55:00.276Z,98287.00
2018-09-23T04:57:29.516Z,98284.00
2018-09-23T04:59:58.924Z,98271.00
2018-09-23T05:02:28.065Z,98283.00
2018-09-23T05:04:57.148Z,98276.00
2018-09-23T05:07:26.324Z,98263.00
2018-09-23T05:09:55.370Z,98264.00
2018-09-23T05:12:24.436Z,98261.00
2018-09-23T05:14:53.528Z,98254.00
2018-09-23T05:17:22.629Z,98244.00
2018-09-23T05:19:51.676Z,98244.00
2018-09-23T05:22:20.844Z,98253.00
2018-09-23T05:24:49.913Z,98253.00
2018-09-23T05:27:19.001Z,98260.00
2018-09-23T05:29:48.100Z,98237.00
2018-09-23T05:32:17.206Z,98250.00
2018-09-23T05:34:46.263Z,98249.00
2018-09-23T05:37:15.560Z,98257.00
2018-09-23T05:39:44.636Z,98256.00
2018-09-23T05:42:13.760Z,98268.00
2018-09-23T05:44:42.859Z,98242.00
2018-09-23T05:47:11.977Z,98244.00
2018-09-23T05:49:41.049Z,98246.00
2018-09-23T05:52:10.328Z,98243.00
2018-09-23T05:54:39.440Z,98248.00
2018-09-23T05:57:08.512Z,98241.00
2018-09-23T05:59:37.673Z,98238.00
2018-09-23T06:02:06.836Z,98234.00
2018-09-23T06:04:36.144Z,98235.00
2018-09-23T06:07:05.309Z,98225.00
2018-09-23T06:09:34.453Z,98238.00
2018-09-23T06:12:03.524Z,98222.00
2018-09-23T06:14:33.220Z,98229.00
2018-09-23T06:17:03.049Z,98219.00
2018-09-23T06:19:32.149Z,98224.00
2018-09-23T06:22:01.316Z,98219.00
2018-09-23T06:24:30.465Z,98222.00
2018-09-23T06:26:59.753Z,98214.00
2018-09-23T06:29:28.844Z,98211.00
2018-09-23T06:31:57.868Z,98214.00
2018-09-23T06:34:27.568Z,98210.00
2018-09-23T06:36:56.684Z,98207.00
2018-09-23T06:39:25.736Z,98204.00
2018-09-23T06:41:54.846Z,98207.00
2018-09-23T06:44:24.212Z,98202.00
2018-09-23T06:46:53.344Z,98206.00
2018-09-23T06:49:22.448Z,98199.00
2018-09-23T06:51:51.556Z,98198.00
2018-09-23T06:54:21.565Z,98210.00
2018-09-23T06:56:50.555Z,98205.00
2018-09-23T06:59:19.706Z,98209.00
2018-09-23T07:01:48.800Z,98187.00
2018-09-23T07:04:17.876Z,98168.00
2018-09-23T07:06:47.037Z,98178.00
2018-09-23T07:09:16.124Z,98192.00
2018-09-23T07:11:45.208Z,98189.00
2018-09-23T07:14:14.361Z,98185.00
2018-09-23T07:16:43.576Z,98187.00
2018-09-23T07:19:12.721Z,98186.00
2018-09-23T07:21:41.804Z,98178.00
2018-09-23T07:24:10.901Z,98180.00
2018-09-23T07:26:39.960Z,98191.00
2018-09-23T07:29:09.241Z,98196.00
2018-09-23T07:31:38.389Z,98193.00
2018-09-23T07:34:07.465Z,98195.00
2018-09-23T07:36:36.771Z,98189.00
2018-09-23T07:39:08.089Z,98204.00
2018-09-23T07:41:37.196Z,98202.00
2018-09-23T07:44:06.833Z,98191.00
2018-09-23T07:46:36.308Z,98196.00
2018-09-23T07:49:05.808Z,98197.00
2018-09-23T07:51:34.941Z,98195.00
2018-09-23T07:54:04.012Z,98188.00
2018-09-23T07:56:33.149Z,98178.00
2018-09-23T07:59:02.201Z,98190.00
2018-09-23T08:01:31.268Z,98181.00
2018-09-23T08:04:00.420Z,98198.00
2018-09-23T08:06:29.532Z,98187.00
2018-09-23T08:08:58.613Z,98185.00
2018-09-23T08:11:27.681Z,98188.00
2018-09-23T08:13:58.551Z,98192.00
2018-09-23T08:16:27.328Z,98193.00
2018-09-23T08:18:56.453Z,98192.00
2018-09-23T08:21:25.564Z,98199.00
2018-09-23T08:23:54.786Z,98187.00
2018-09-23T08:26:23.946Z,98188.00
2018-09-23T08:28:53.521Z,98189.00
2018-09-23T08:31:22.592Z,98185.00
2018-09-23T08:33:51.669Z,98186.00
2018-09-23T08:36:20.704Z,98184.00
2018-09-23T08:38:50.670Z,98176.00
2018-09-23T08:41:19.733Z,98186.00
2018-09-23T08:43:48.812Z,98187.00
2018-09-23T08:46:18.142Z,98179.00
2018-09-23T08:48:47.596Z,98174.00
2018-09-23T08:51:16.857Z,98176.00
2018-09-23T08:53:46.004Z,98172.00
2018-09-23T08:56:15.084Z,98184.00
2018-09-23T08:58:44.782Z,98170.00
2018-09-23T09:01:13.913Z,98191.00
2018-09-23T09:03:42.991Z,98181.00
2018-09-23T09:06:11.996Z,98186.00
2018-09-23T09:08:41.152Z,98181.00
2018-09-23T09:11:10.570Z,98180.00
2018-09-23T09:13:39.643Z,98170.00
2018-09-23T09:16:09.192Z,98160.00
2018-09-23T09:18:38.441Z,98156.00
2018-09-23T09:21:07.392Z,98162.00
2018-09-23T09:23:36.765Z,98149.00
2018-09-23T09:26:05.812Z,98147.00
2018-09-23T09:28:34.908Z,98142.00
2018-09-23T09:31:04.057Z,98138.00
2018-09-23T09:33:33.133Z,98118.00
2018-09-23T09:36:02.236Z,98127.00
2018-09-23T09:38:31.410Z,98123.00
2018-09-23T09:41:00.465Z,98120.00
2018-09-23T09:43:31.188Z,98131.00
2018-09-23T09:46:00.312Z,98127.00
2018-09-23T09:48:29.389Z,98122.00
2018-09-23T09:50:58.485Z,98120.00
2018-09-23T09:53:27.546Z,98113.00
2018-09-23T09:55:56.596Z,98113.00
2018-09-23T09:58:25.659Z,98109.00
2018-09-23T10:00:54.780Z,98101.00
2018-09-23T10:03:23.860Z,98113.00
2018-09-23T10:05:52.932Z,98080.00
2018-09-23T10:08:22.012Z,98098.00
2018-09-23T10:10:51.100Z,98089.00
2018-09-23T10:13:20.241Z,98091.00
2018-09-23T10:15:49.300Z,98096.00
2018-09-23T10:18:18.377Z,98097.00
2018-09-23T10:20:47.495Z,98081.00
2018-09-23T10:23:16.683Z,98074.00
2018-09-23T10:25:45.711Z,98058.00
2018-09-23T10:28:14.792Z,98069.00
2018-09-23T10:30:43.904Z,98068.00
2018-09-23T10:33:13.005Z,98077.00
2018-09-23T10:35:42.201Z,98064.00
2018-09-23T10:38:11.297Z,98077.00
2018-09-23T10:40:40.397Z,98064.00
2018-09-23T10:43:09.408Z,98058.00
2018-09-23T10:45:38.548Z,98068.00
2018-09-23T10:48:07.556Z,98050.00
2018-09-23T10:50:36.673Z,98048.00
2018-09-23T10:53:05.812Z,98036.00
2018-09-23T10:55:34.947Z,98036.00
2018-09-23T10:58:03.990Z,98029.00
2018-09-23T11:00:33.133Z,98031.00
2018-09-23T11:03:02.253Z,98026.00
2018-09-23T11:05:31.313Z,98020.00
2018-09-23T11:08:00.449Z,98011.00
2018-09-23T11:10:29.517Z,98004.00
2018-09-23T11:12:58.780Z,98008.00
2018-09-23T11:15:27.912Z,98006.00
2018-09-23T11:17:57.041Z,98000.00
2018-09-23T11:20:26.205Z,97996.00
2018-09-23T11:22:55.327Z,97995.00
2018-09-23T11:25:24.417Z,97993.00
2018-09-23T11:27:53.528Z,97988.00
2018-09-23T11:30:22.684Z,97989.00
2018-09-23T11:32:51.785Z,97972.00
2018-09-23T11:35:20.901Z,97976.00
2018-09-23T11:37:49.964Z,97957.00
2018-09-23T11:40:19.064Z,97973.00
2018-09-23T11:42:48.067Z,97934.00
2018-09-23T11:45:17.157Z,97932.00
2018-09-23T11:47:46.283Z,97928.00
2018-09-23T11:50:15.435Z,97918.00
2018-09-23T11:52:44.524Z,97910.00
2018-09-23T11:55:13.640Z,97903.00
2018-09-23T11:57:42.704Z,97889.00
2018-09-23T12:00:11.833Z,97899.00
2018-09-23T12:02:40.909Z,97881.00
2018-09-23T12:05:10.028Z,97873.00
2018-09-23T12:07:39.156Z,97855.00
2018-09-23T12:10:08.228Z,97850.00
2018-09-23T12:12:37.332Z,97822.00
2018-09-23T12:15:06.420Z,97827.00
2018-09-23T12:17:35.501Z,97834.00
2018-09-23T12:20:04.733Z,97832.00
2018-09-23T12:22:33.921Z,97818.00
2018-09-23T12:25:03.012Z,97805.00
2018-09-23T12:27:32.009Z,97806.00
2018-09-23T12:30:01.085Z,97770.00
2018-09-23T12:32:30.144Z,97782.00
2018-09-23T12:34:59.305Z,97784.00
2018-09-23T12:37:28.497Z,97752.00
2018-09-23T12:39:57.653Z,97731.00
2018-09-23T12:42:27.609Z,97760.00
2018-09-23T12:44:56.717Z,97750.00
2018-09-23T12:47:25.821Z,97740.00
2018-09-23T12:49:54.868Z,97734.00
2018-09-23T12:52:23.985Z,97706.00
2018-09-23T12:54:53.059Z,97722.00
2018-09-23T12:57:22.177Z,97712.00
2018-09-23T12:59:51.648Z,97698.00
2018-09-23T13:02:20.816Z,97713.00
2018-09-23T13:04:50.084Z,97692.00
2018-09-23T13:07:19.167Z,97673.00
2018-09-23T13:09:48.274Z,97668.00
2018-09-23T13:12:17.342Z,97653.00
2018-09-23T13:14:46.473Z,97640.00
2018-09-23T13:17:15.520Z,97600.00
2018-09-23T13:19:44.616Z,97597.00
2018-09-23T13:22:14.028Z,97593.00
2018-09-23T13:24:43.608Z,97606.00
2018-09-23T13:27:12.757Z,97600.00
2018-09-23T13:29:42.038Z,97619.00
2018-09-23T13:32:11.611Z,97616.00
2018-09-23T13:34:40.740Z,97609.00
2018-09-23T13:37:09.844Z,97600.00
2018-09-23T13:39:38.973Z,97626.00
2018-09-23T13:42:08.304Z,97625.00
2018-09-23T13:44:37.977Z,97610.00
2018-09-23T13:47:07.112Z,97617.00
2018-09-23T13:49:36.222Z,97603.00
2018-09-23T13:52:05.557Z,97585.00
2018-09-23T13:54:34.828Z,97575.00
2018-09-23T13:57:03.748Z,97577.00
2018-09-23T13:59:32.818Z,97570.00
2018-09-23T14:02:01.984Z,97577.00
2018-09-23T14:04:31.045Z,97557.00
2018-09-23T14:07:00.119Z,97558.00
2018-09-23T14:09:29.197Z,97553.00
2018-09-23T14:11:58.412Z,97537.00
2018-09-23T14:14:27.493Z,97507.00
2018-09-23T14:16:56.612Z,97500.00
2018-09-23T14:19:25.679Z,97509.00
2018-09-23T14:21:55.189Z,97469.00
2018-09-23T14:24:24.321Z,97495.00
2018-09-23T14:26:53.368Z,97492.00
2018-09-23T14:29:22.384Z,97484.00
2018-09-23T14:31:51.485Z,97493.00
2018-09-23T14:34:20.565Z,97524.00
2018-09-23T14:36:49.644Z,97505.00
2018-09-23T14:39:18.826Z,97500.00
2018-09-23T14:41:47.973Z,97508.00
2018-09-23T14:44:17.036Z,97513.00
2018-09-23T14:46:46.160Z,97498.00
2018-09-23T14:49:15.432Z,97513.00
2018-09-23T14:51:44.585Z,97530.00
2018-09-23T14:54:13.952Z,97715.00
2018-09-23T14:56:42.981Z,97695.00
2018-09-23T14:59:12.257Z,97712.00
2018-09-23T15:01:41.361Z,97718.00
2018-09-23T15:04:10.426Z,97718.00
2018-09-23T15:06:39.732Z,97741.00
2018-09-23T15:09:10.764Z,97755.00
2018-09-23T15:11:40.144Z,97749.00
2018-09-23T15:14:09.336Z,97748.00
2018-09-23T15:16:38.384Z,97771.00
2018-09-23T15:19:08.596Z,97764.00
2018-09-23T15:21:37.733Z,97770.00
2018-09-23T15:24:06.953Z,97775.00
2018-09-23T15:26:36.048Z,97773.00
2018-09-23T15:29:05.196Z,97763.00
2018-09-23T15:31:34.248Z,97764.00
2018-09-23T15:34:03.381Z,97764.00
2018-09-23T15:36:32.441Z,97763.00
2018-09-23T15:39:02.288Z,97768.00
2018-09-23T15:41:31.488Z,97748.00
2018-09-23T15:44:01.484Z,97743.00
2018-09-23T15:46:30.696Z,97738.00
2018-09-23T15:48:59.760Z,97754.00
2018-09-23T15:51:28.892Z,97779.00
2018-09-23T15:53:58.192Z,97793.00
2018-09-23T15:56:27.393Z,97806.00
2018-09-23T15:58:56.452Z,97823.00
2018-09-23T16:01:25.537Z,97818.00
2018-09-23T16:03:54.676Z,97821.00
2018-09-23T16:06:23.740Z,97819.00
2018-09-23T16:08:52.835Z,97833.00
2018-09-23T16:11:21.960Z,97833.00
2018-09-23T16:13:51.028Z,97837.00
2018-09-23T16:16:20.128Z,97837.00
2018-09-23T16:18:49.316Z,97844.00
2018-09-23T16:21:18.256Z,97872.00
2018-09-23T16:23:47.340Z,97869.00
2018-09-23T16:26:16.409Z,97844.00
2018-09-23T16:28:45.736Z,97854.00
2018-09-23T16:31:14.848Z,97871.00
2018-09-23T16:33:44.073Z,97899.00
2018-09-23T16:36:13.428Z,97918.00
2018-09-23T16:38:42.493Z,97932.00
2018-09-23T16:41:12.000Z,97946.00
2018-09-23T16:43:41.066Z,97968.00
2018-09-23T16:46:10.224Z,97988.00
2018-09-23T16:48:39.317Z,98007.00
2018-09-23T16:51:08.464Z,97998.00
2018-09-23T16:53:37.588Z,98005.00
2018-09-23T16:56:07.168Z,98019.00
2018-09-23T16:58:36.373Z,98037.00
2018-09-23T17:01:05.503Z,98048.00
2018-09-23T17:03:34.811Z,98099.00
2018-09-23T17:06:03.912Z,98116.00
2018-09-23T17:08:33.005Z,98114.00
2018-09-23T17:11:02.088Z,98122.00
2018-09-23T17:13:32.180Z,98121.00
2018-09-23T17:16:01.493Z,98105.00
2018-09-23T17:18:30.537Z,98079.00
2018-09-23T17:20:59.596Z,98084.00
2018-09-23T17:23:28.703Z,98103.00
2018-09-23T17:25:57.877Z,98139.00
2018-09-23T17:28:27.087Z,98132.00
2018-09-23T17:30:56.120Z,98183.00
2018-09-23T17:33:25.204Z,98207.00
2018-09-23T17:35:54.296Z,98212.00
2018-09-23T17:38:23.400Z,98230.00
2018-09-23T17:40:52.538Z,98245.00
2018-09-23T17:43:21.556Z,98265.00
2018-09-23T17:45:50.789Z,98248.00
2018-09-23T17:48:19.880Z,98261.00
2018-09-23T17:50:48.920Z,98283.00
2018-09-23T17:53:18.003Z,98295.00
2018-09-23T17:55:47.074Z,98295.00
2018-09-23T17:58:16.156Z,98315.00
2018-09-23T18:00:45.357Z,98347.00
2018-09-23T18:03:15.024Z,98372.00
2018-09-23T18:05:44.236Z,98387.00
2018-09-23T18:08:13.340Z,98401.00
2018-09-23T18:10:42.391Z,98423.00
2018-09-23T18:13:11.488Z,98425.00
2018-09-23T18:15:40.624Z,98452.00
2018-09-23T18:18:09.720Z,98450.00
2018-09-23T18:20:38.787Z,98477.00
2018-09-23T18:23:07.981Z,98483.00
2018-09-23T18:25:36.967Z,98525.00
2018-09-23T18:28:06.320Z,98537.00
2018-09-23T18:30:35.428Z,98535.00
2018-09-23T18:33:04.500Z,98550.00
2018-09-23T18:35:34.690Z,98567.00
2018-09-23T18:38:03.798Z,98582.00
2018-09-23T18:40:32.911Z,98595.00
2018-09-23T18:43:01.972Z,98619.00
2018-09-23T18:45:31.280Z,98629.00
2018-09-23T18:48:00.401Z,98632.00
2018-09-23T18:50:29.452Z,98635.00
2018-09-23T18:53:04.231Z,98645.00
2018-09-23T18:55:38.659Z,98652.00
2018-09-23T18:58:08.025Z,98661.00
2018-09-23T19:00:37.140Z,98672.00
2018-09-23T19:03:06.277Z,98674.00
2018-09-23T19:05:35.492Z,98672.00
2018-09-23T19:08:04.645Z,98675.00
2018-09-23T19:10:33.724Z,98671.00
2018-09-23T19:13:08.056Z,98682.00
2018-09-23T19:15:37.382Z,98692.00
2018-09-23T19:18:06.420Z,98691.00
2018-09-23T19:20:35.558Z,98704.00
2018-09-23T19:23:11.800Z,98716.00
2018-09-23T19:25:41.000Z,98727.00
2018-09-23T19:28:10.047Z,98742.00
2018-09-23T19:30:39.080Z,98769.00
2018-09-23T19:33:08.160Z,98775.00
2018-09-23T19:35:37.253Z,98793.00
2018-09-23T19:38:06.373Z,98798.00
2018-09-23T19:40:36.084Z,98814.00
2018-09-23T19:43:05.166Z,98826.00
2018-09-23T19:45:34.140Z,98832.00
2018-09-23T19:48:03.244Z,98843.00
2018-09-23T19:50:32.328Z,98856.00
2018-09-23T19:53:01.453Z,98861.00
2018-09-23T19:55:30.824Z,98868.00
2018-09-23T19:57:59.887Z,98871.00
2018-09-23T20:00:29.076Z,98878.00
2018-09-23T20:02:58.134Z,98885.00
2018-09-23T20:05:27.224Z,98896.00
2018-09-23T20:07:56.308Z,98899.00
2018-09-23T20:10:25.408Z,98904.00
2018-09-23T20:12:54.492Z,98920.00
2018-09-23T20:15:23.628Z,98924.00
2018-09-23T20:17:52.684Z,98932.00
2018-09-23T20:20:21.817Z,98947.00
2018-09-23T20:22:51.012Z,98950.00
2018-09-23T20:25:20.157Z,98962.00
2018-09-23T20:27:49.205Z,98971.00
2018-09-23T20:30:18.312Z,98983.00
2018-09-23T20:32:47.452Z,98988.00
2018-09-23T20:35:16.556Z,98993.00
2018-09-23T20:37:45.633Z,99000.00
2018-09-23T20:40:14.728Z,99007.00
2018-09-23T20:42:43.859Z,99013.00
2018-09-23T20:45:13.441Z,99024.00
2018-09-23T20:47:42.550Z,99035.00
2018-09-23T20:50:11.679Z,99042.00
2018-09-23T20:52:41.072Z,99057.00
2018-09-23T20:55:10.181Z,99065.00
2018-09-23T20:57:39.273Z,99070.00
2018-09-23T21:00:08.840Z,99087.00
2018-09-23T21:02:37.953Z,99090.00
2018-09-23T21:05:07.597Z,99102.00
2018-09-23T21:07:36.757Z,99109.00
2018-09-23T21:10:05.945Z,99124.00
2018-09-23T21:12:35.025Z,99122.00
2018-09-23T21:15:04.642Z,99131.00
2018-09-23T21:17:33.944Z,99133.00
2018-09-23T21:20:03.077Z,99146.00
2018-09-23T21:22:32.160Z,99149.00
2018-09-23T21:25:01.415Z,99157.00
2018-09-23T21:27:30.540Z,99160.00
2018-09-23T21:29:59.660Z,99164.00
2018-09-23T21:32:28.721Z,99167.00
2018-09-23T21:34:57.804Z,99180.00
2018-09-23T21:37:26.948Z,99192.00
2018-09-23T21:39:56.057Z,99206.00
2018-09-23T21:42:25.112Z,99215.00
2018-09-23T21:44:54.232Z,99227.00
2018-09-23T21:47:23.304Z,99237.00
2018-09-23T21:49:52.425Z,99243.00
2018-09-23T21:52:21.512Z,99257.00
2018-09-23T21:54:50.568Z,99269.00
2018-09-23T21:57:19.676Z,99278.00
2018-09-23T21:59:48.781Z,99286.00
2018-09-23T22:02:17.844Z,99292.00
2018-09-23T22:04:46.949Z,99296.00
2018-09-23T22:07:16.056Z,99300.00
2018-09-23T22:09:45.165Z,99303.00
2018-09-23T22:12:14.276Z,99309.00
2018-09-23T22:14:44.879Z,99313.00
2018-09-23T22:17:14.010Z,99316.00
2018-09-23T22:19:43.288Z,99321.00
2018-09-23T22:22:12.396Z,99326.00
2018-09-23T22:24:41.596Z,99335.00
2018-09-23T22:27:10.652Z,99334.00
2018-09-23T22:29:40.408Z,99341.00
2018-09-23T22:32:10.555Z,99347.00
2018-09-23T22:34:39.604Z,99355.00
2018-09-23T22:37:08.995Z,99371.00
2018-09-23T22:39:38.121Z,99385.00
2018-09-23T22:42:07.493Z,99386.00
2018-09-23T22:44:36.525Z,99390.00
2018-09-23T22:47:05.592Z,99391.00
2018-09-23T22:49:34.701Z,99395.00
2018-09-23T22:52:03.805Z,99388.00
2018-09-23T22:54:32.903Z,99387.00
2018-09-23T22:57:02.040Z,99397.00
2018-09-23T22:59:31.297Z,99407.00
2018-09-23T23:02:00.389Z,99412.00
2018-09-23T23:04:29.451Z,99419.00
2018-09-23T23:06:58.556Z,99428.00
2018-09-23T23:09:27.640Z,99438.00
2018-09-23T23:11:56.647Z,99442.00
2018-09-23T23:14:25.692Z,99443.00
2018-09-23T23:16:54.732Z,99455.00
2018-09-23T23:19:23.828Z,99457.00
2018-09-23T23:21:53.152Z,99465.00
2018-09-23T23:24:22.249Z,99469.00
2018-09-23T23:26:51.308Z,99475.00
2018-09-23T23:29:20.395Z,99489.00
2018-09-23T23:31:49.456Z,99496.00
2018-09-23T23:34:18.992Z,99500.00
2018-09-23T23:36:48.556Z,99507.00
2018-09-23T23:39:17.640Z,99515.00
2018-09-23T23:41:46.712Z,99514.00
2018-09-23T23:44:15.837Z,99520.00
2018-09-23T23:46:44.932Z,99525.00
2018-09-23T23:49:13.988Z,99530.00
2018-09-23T23:51:43.240Z,99537.00
2018-09-23T23:54:12.377Z,99543.00
2018-09-23T23:56:41.388Z,99540.00
2018-09-23T23:59:10.504Z,99552.00
